createdAt,value
2022-09-11T00:01:40.448Z,14.51
2022-09-11T00:04:16.648Z,14.23
2022-09-11T00:06:46.916Z,14.50
2022-09-11T00:09:17.126Z,14.53
2022-09-11T00:11:57.482Z,14.65
2022-09-11T00:14:37.256Z,14.75
2022-09-11T00:17:20.974Z,14.46
2022-09-11T00:19:58.605Z,14.60
2022-09-11T00:22:39.657Z,14.58
2022-09-11T00:25:16.968Z,14.62
2022-09-11T00:27:57.172Z,14.60
2022-09-11T00:30:31.496Z,14.72
2022-09-11T00:33:09.398Z,14.74
2022-09-11T00:35:37.360Z,14.77
2022-09-11T00:38:17.262Z,14.56
2022-09-11T00:40:54.317Z,14.53
2022-09-11T00:43:26.550Z,14.68
2022-09-11T00:46:07.081Z,14.68
2022-09-11T00:48:40.435Z,14.46
2022-09-11T00:51:14.307Z,14.42
2022-09-11T00:53:46.268Z,14.46
2022-09-11T00:56:21.092Z,14.50
2022-09-11T00:59:10.195Z,14.28
2022-09-11T01:01:44.572Z,14.30
2022-09-11T01:04:18.154Z,14.42
2022-09-11T01:06:52.857Z,13.88
2022-09-11T01:09:30.634Z,13.83
2022-09-11T01:12:09.274Z,13.80
2022-09-11T01:14:49.016Z,13.96
2022-09-11T01:18:20.276Z,13.98
2022-09-11T01:21:08.489Z,14.27
2022-09-11T01:24:16.158Z,14.00
2022-09-11T01:27:05.210Z,14.05
2022-09-11T01:29:45.247Z,14.19
2022-09-11T01:32:26.629Z,14.15
2022-09-11T01:35:46.923Z,14.25
2022-09-11T01:38:41.703Z,14.05
2022-09-11T01:41:18.392Z,13.97
2022-09-11T01:44:06.284Z,14.09
2022-09-11T01:46:53.544Z,14.08
2022-09-11T01:50:06.733Z,14.37
2022-09-11T01:52:58.799Z,14.45
2022-09-11T01:55:31.020Z,14.42
2022-09-11T01:58:42.043Z,14.25
2022-09-11T02:01:23.729Z,14.25
2022-09-11T02:04:18.628Z,14.34
2022-09-11T02:07:06.570Z,14.30
2022-09-11T02:09:48.866Z,14.26
2022-09-11T02:12:21.678Z,14.16
2022-09-11T02:14:53.218Z,14.14
